createdAt,value
2018-11-22T12:17:50.704Z,46.60
2018-11-22T12:20:20.654Z,43.67
2018-11-22T12:22:51.365Z,45.30
2018-11-22T12:25:22.105Z,44.20
2018-11-22T12:27:53.251Z,40.20
2018-11-22T12:30:24.018Z,41.33
2018-11-22T12:32:58.773Z,45.40
2018-11-22T12:35:33.483Z,41.90
2018-11-22T12:38:08.113Z,38.33
2018-11-22T12:40:37.683Z,43.83
2018-11-22T12:43:07.161Z,39.80
2018-11-22T12:45:36.570Z,43.83
2018-11-22T12:48:06.179Z,46.00
2018-11-22T12:50:35.696Z,44.00
2018-11-22T12:53:05.323Z,39.97
2018-11-22T12:55:34.729Z,40.83
2018-11-22T12:58:04.112Z,40.90
2018-11-22T13:00:33.545Z,41.70
2018-11-22T13:03:02.899Z,40.47
2018-11-22T13:05:32.284Z,43.00
2018-11-22T13:08:02.350Z,44.50
2018-11-22T13:10:31.857Z,47.30
2018-11-22T13:13:01.787Z,45.67
2018-11-22T13:15:31.146Z,44.37
2018-11-22T13:18:00.838Z,44.13
2018-11-22T13:20:30.297Z,43.13
2018-11-22T13:22:59.946Z,47.10
2018-11-22T13:25:29.374Z,42.43
2018-11-22T13:27:59.343Z,40.60
2018-11-22T13:30:29.561Z,47.83
2018-11-22T13:32:59.521Z,43.13
2018-11-22T13:35:28.876Z,40.23
2018-11-22T13:37:58.748Z,44.33
2018-11-22T13:40:28.427Z,39.23
2018-11-22T13:42:57.977Z,42.03
2018-11-22T13:45:28.607Z,41.33
2018-11-22T13:47:59.233Z,39.73
2018-11-22T13:50:30.258Z,47.93
2018-11-22T13:53:01.624Z,40.07
2018-11-22T13:55:31.522Z,40.20
2018-11-22T13:58:01.049Z,40.57
2018-11-22T14:00:31.918Z,40.83
2018-11-22T14:03:02.878Z,43.03
2018-11-22T14:05:32.926Z,40.33
2018-11-22T14:08:03.112Z,43.90
2018-11-22T14:10:32.664Z,41.90
2018-11-22T14:13:02.319Z,39.23
2018-11-22T14:15:32.459Z,39.97
2018-11-22T14:18:03.480Z,45.60
2018-11-22T14:20:34.571Z,40.20
2018-11-22T14:23:04.266Z,41.87
2018-11-22T14:25:33.837Z,41.67
2018-11-22T14:28:03.791Z,43.13
2018-11-22T14:30:34.998Z,40.93
2018-11-22T14:33:04.553Z,40.30
2018-11-22T14:35:34.352Z,39.20
2018-11-22T14:38:03.861Z,41.97
2018-11-22T14:40:33.457Z,42.00
2018-11-22T14:43:03.032Z,39.90
2018-11-22T14:45:32.526Z,39.20
2018-11-22T14:48:02.988Z,39.50
2018-11-22T14:50:39.041Z,40.17
2018-11-22T14:53:12.091Z,42.60
2018-11-22T14:55:41.873Z,42.20
2018-11-22T14:58:11.480Z,42.13
2018-11-22T15:00:41.119Z,41.57
2018-11-22T15:03:10.534Z,40.20
2018-11-22T15:05:40.039Z,44.23
2018-11-22T15:08:09.615Z,47.40
2018-11-22T15:10:39.074Z,40.70
2018-11-22T15:13:08.569Z,41.63
2018-11-22T15:15:38.033Z,42.90
2018-11-22T15:18:07.617Z,42.67
2018-11-22T15:20:37.062Z,41.23
2018-11-22T15:23:06.992Z,47.90
2018-11-22T15:25:36.484Z,42.97
2018-11-22T15:28:06.105Z,48.13
2018-11-22T15:30:35.493Z,42.43
2018-11-22T15:33:05.553Z,40.37
2018-11-22T15:35:35.015Z,43.17
2018-11-22T15:38:04.551Z,43.60
2018-11-22T15:40:34.011Z,41.10
2018-11-22T15:43:04.787Z,48.70
2018-11-22T15:45:35.021Z,44.30
2018-11-22T15:48:03.840Z,50.43
2018-11-22T15:50:33.265Z,43.40
2018-11-22T15:53:02.719Z,44.03
2018-11-22T15:55:32.047Z,45.80
2018-11-22T15:58:01.737Z,43.00
2018-11-22T16:00:32.594Z,43.43
2018-11-22T16:03:02.491Z,43.60
2018-11-22T16:05:32.719Z,39.43
2018-11-22T16:08:02.305Z,40.80
2018-11-22T16:10:33.517Z,40.83
2018-11-22T16:13:07.725Z,45.20
2018-11-22T16:15:48.376Z,44.33
2018-11-22T16:18:17.766Z,44.83
2018-11-22T16:20:47.277Z,44.43
2018-11-22T16:23:16.675Z,45.17
2018-11-22T16:25:46.116Z,42.13
2018-11-22T16:28:15.802Z,41.03
2018-11-22T16:30:45.186Z,40.20
2018-11-22T16:33:14.584Z,39.17
2018-11-22T16:35:44.922Z,42.70
2018-11-22T16:38:14.290Z,40.83
2018-11-22T16:40:43.825Z,38.47
2018-11-22T16:43:13.191Z,42.00
2018-11-22T16:45:42.564Z,43.87
2018-11-22T16:48:13.502Z,41.33
2018-11-22T16:50:43.619Z,37.57
2018-11-22T16:53:13.183Z,43.43
2018-11-22T16:55:42.563Z,37.87
2018-11-22T16:58:11.926Z,39.90
2018-11-22T17:00:41.542Z,39.37
2018-11-22T17:03:13.355Z,40.07
2018-11-22T17:05:43.373Z,39.07
2018-11-22T17:08:12.819Z,38.10
2018-11-22T17:10:42.788Z,36.73
2018-11-22T17:13:12.240Z,38.53
2018-11-22T17:15:42.516Z,40.80
2018-11-22T17:18:12.349Z,43.73
2018-11-22T17:20:41.727Z,39.53
2018-11-22T17:23:11.385Z,41.33
2018-11-22T17:25:41.042Z,40.10
2018-11-22T17:28:10.764Z,38.93
2018-11-22T17:30:43.757Z,35.87
2018-11-22T17:33:13.212Z,41.07
2018-11-22T17:35:43.345Z,41.57
2018-11-22T17:38:13.632Z,44.23
2018-11-22T17:40:44.862Z,41.37
2018-11-22T17:43:15.492Z,42.47
2018-11-22T17:45:46.521Z,42.67
2018-11-22T17:48:17.212Z,43.60
2018-11-22T17:50:47.887Z,42.77
2018-11-22T17:53:17.613Z,41.33
2018-11-22T17:55:47.020Z,40.90
2018-11-22T17:58:17.319Z,43.30
2018-11-22T18:00:48.768Z,41.27
2018-11-22T18:03:18.369Z,38.60
2018-11-22T18:05:48.453Z,42.13
2018-11-22T18:08:18.103Z,42.37
2018-11-22T18:10:48.245Z,47.50
2018-11-22T18:13:17.913Z,44.30
2018-11-22T18:15:53.594Z,43.40
2018-11-22T18:18:23.102Z,41.73
2018-11-22T18:20:52.721Z,45.53
2018-11-22T18:23:22.300Z,45.60
2018-11-22T18:25:51.804Z,47.57
2018-11-22T18:28:21.152Z,49.23
2018-11-22T18:30:50.639Z,45.03
2018-11-22T18:33:20.055Z,45.37
2018-11-22T18:35:49.513Z,42.60
2018-11-22T18:38:19.006Z,47.73
2018-11-22T18:40:48.924Z,44.77
2018-11-22T18:43:19.258Z,47.03
2018-11-22T18:45:49.219Z,48.67
2018-11-22T18:48:19.738Z,44.87
2018-11-22T18:50:49.330Z,48.30
2018-11-22T18:53:18.738Z,45.17
2018-11-22T18:55:48.250Z,45.40
2018-11-22T18:58:17.749Z,47.77
2018-11-22T19:00:47.671Z,48.10
2018-11-22T19:03:19.332Z,47.57
2018-11-22T19:05:49.395Z,48.80
2018-11-22T19:08:18.884Z,49.57
2018-11-22T19:10:48.398Z,47.87
2018-11-22T19:13:17.982Z,49.00
2018-11-22T19:15:49.488Z,47.47
2018-11-22T19:18:19.357Z,45.47
2018-11-22T19:20:48.940Z,48.97
2018-11-22T19:23:18.669Z,52.17
2018-11-22T19:25:48.168Z,51.97
2018-11-22T19:28:17.664Z,50.13
2018-11-22T19:30:48.617Z,48.40
2018-11-22T19:33:19.300Z,55.47
2018-11-22T19:35:50.736Z,48.33
2018-11-22T19:38:20.228Z,51.67
2018-11-22T19:40:49.938Z,46.07
2018-11-22T19:43:20.203Z,49.37
2018-11-22T19:45:50.291Z,55.03
2018-11-22T19:48:19.812Z,51.60
2018-11-22T19:50:50.171Z,53.03
2018-11-22T19:53:19.595Z,53.83
2018-11-22T19:55:49.626Z,47.80
2018-11-22T19:58:19.437Z,52.00
2018-11-22T20:00:48.882Z,52.37
2018-11-22T20:03:19.089Z,52.03
2018-11-22T20:05:48.462Z,51.60
2018-11-22T20:08:19.201Z,49.27
2018-11-22T20:10:48.997Z,51.53
2018-11-22T20:13:18.316Z,51.97
2018-11-22T20:15:47.923Z,51.27
2018-11-22T20:18:17.345Z,52.20
2018-11-22T20:20:49.897Z,52.53
2018-11-22T20:23:21.574Z,49.17
2018-11-22T20:25:45.597Z,51.50
2018-11-22T20:28:15.010Z,49.40
2018-11-22T20:30:45.623Z,53.00
2018-11-22T20:33:15.193Z,54.67
2018-11-22T20:35:44.771Z,48.57
2018-11-22T20:38:14.125Z,50.07
2018-11-22T20:40:43.457Z,52.60
2018-11-22T20:43:12.808Z,50.23
2018-11-22T20:45:42.253Z,52.07
2018-11-22T20:48:11.757Z,50.57
2018-11-22T20:50:41.113Z,54.00
2018-11-22T20:53:10.439Z,53.63
2018-11-22T20:55:40.629Z,50.20
2018-11-22T20:58:10.163Z,51.30
2018-11-22T21:00:40.991Z,47.97
2018-11-22T21:03:10.452Z,47.63
2018-11-22T21:05:39.890Z,51.03
2018-11-22T21:08:09.312Z,53.70
2018-11-22T21:10:38.969Z,48.93
2018-11-22T21:13:08.554Z,50.03
2018-11-22T21:15:38.065Z,50.50
2018-11-22T21:18:08.800Z,54.50
2018-11-22T21:20:40.200Z,51.97
2018-11-22T21:23:09.857Z,51.60
2018-11-22T21:25:39.270Z,49.87
2018-11-22T21:28:08.753Z,49.20
2018-11-22T21:30:39.413Z,48.80
2018-11-22T21:33:09.517Z,45.27
2018-11-22T21:35:38.932Z,47.20
2018-11-22T21:38:08.963Z,46.17
2018-11-22T21:40:38.475Z,47.87
2018-11-22T21:43:07.973Z,46.17
2018-11-22T21:45:37.744Z,49.73
2018-11-22T21:48:07.196Z,46.47
2018-11-22T21:50:36.668Z,46.53
2018-11-22T21:53:06.120Z,49.23
2018-11-22T21:55:35.659Z,51.27
2018-11-22T21:58:05.364Z,49.13
2018-11-22T22:00:38.398Z,48.90
2018-11-22T22:03:09.491Z,48.60
2018-11-22T22:05:39.621Z,50.70
2018-11-22T22:08:09.356Z,50.17
2018-11-22T22:10:38.804Z,46.13
2018-11-22T22:13:08.231Z,51.57
2018-11-22T22:15:38.137Z,47.17
2018-11-22T22:18:09.096Z,46.87
2018-11-22T22:20:38.876Z,52.00
2018-11-22T22:23:13.316Z,45.93
2018-11-22T22:25:38.321Z,50.13
2018-11-22T22:28:07.735Z,52.27
2018-11-22T22:30:37.583Z,50.27
2018-11-22T22:33:07.520Z,49.53
2018-11-22T22:35:37.446Z,49.53
2018-11-22T22:38:07.013Z,54.57
2018-11-22T22:40:36.502Z,54.03
2018-11-22T22:43:06.090Z,47.87
2018-11-22T22:45:35.521Z,52.07
2018-11-22T22:48:05.508Z,48.17
2018-11-22T22:50:35.149Z,51.30
2018-11-22T22:53:04.666Z,50.03
2018-11-22T22:55:34.169Z,49.53
2018-11-22T22:58:03.687Z,48.90
2018-11-22T23:00:36.624Z,50.03
2018-11-22T23:03:08.043Z,53.17
2018-11-22T23:05:37.935Z,50.50
2018-11-22T23:08:07.629Z,48.87
2018-11-22T23:10:37.208Z,48.87
2018-11-22T23:13:07.484Z,47.93
2018-11-22T23:15:37.950Z,46.13
2018-11-22T23:18:07.409Z,52.23
2018-11-22T23:20:37.905Z,51.80
2018-11-22T23:23:07.387Z,49.97
2018-11-22T23:25:37.790Z,49.00
2018-11-22T23:28:07.241Z,49.17
2018-11-22T23:30:36.891Z,47.77
2018-11-22T23:33:07.747Z,49.17
2018-11-22T23:35:37.174Z,46.33
2018-11-22T23:38:06.856Z,48.00
2018-11-22T23:40:36.582Z,49.50
2018-11-22T23:43:06.334Z,45.43
2018-11-22T23:45:35.795Z,47.83
2018-11-22T23:48:05.275Z,49.07
2018-11-22T23:50:34.821Z,49.27
2018-11-22T23:53:05.472Z,45.30
2018-11-22T23:55:34.917Z,46.37
2018-11-22T23:58:04.829Z,46.77
